createdAt,value
2023-04-07T00:00:16.138Z,4.01
2023-04-07T00:02:44.484Z,3.97
2023-04-07T00:05:12.481Z,3.91
2023-04-07T00:07:52.234Z,3.87
2023-04-07T00:10:23.584Z,3.86
2023-04-07T00:12:51.354Z,3.87
2023-04-07T00:15:20.558Z,3.93
2023-04-07T00:17:48.208Z,3.96
2023-04-07T00:20:16.289Z,4.01
2023-04-07T00:22:44.285Z,4.07
2023-04-07T00:25:11.995Z,4.10
2023-04-07T00:27:39.658Z,4.10
2023-04-07T00:30:08.499Z,4.08
2023-04-07T00:32:37.561Z,4.07
2023-04-07T00:35:05.545Z,4.05
2023-04-07T00:37:33.682Z,4.00
2023-04-07T00:40:01.289Z,3.98
2023-04-07T00:42:29.128Z,3.91
2023-04-07T00:44:56.761Z,3.86
2023-04-07T00:47:24.753Z,3.83
2023-04-07T00:49:53.913Z,3.79
2023-04-07T00:52:27.213Z,3.78
2023-04-07T00:54:55.322Z,3.77
2023-04-07T00:57:23.609Z,3.76
2023-04-07T00:59:51.580Z,3.76
2023-04-07T01:02:24.170Z,3.74
2023-04-07T01:05:06.319Z,3.75
2023-04-07T01:07:39.785Z,3.79
2023-04-07T01:10:12.346Z,3.87
2023-04-07T01:12:48.747Z,3.89
2023-04-07T01:15:20.248Z,3.91
2023-04-07T01:17:54.069Z,3.93
2023-04-07T01:20:27.074Z,3.95
2023-04-07T01:22:58.389Z,3.95
2023-04-07T01:25:54.517Z,3.95
2023-04-07T01:28:42.584Z,3.94
2023-04-07T01:31:13.726Z,3.92
2023-04-07T01:33:46.171Z,3.92
2023-04-07T01:36:14.505Z,3.93
2023-04-07T01:38:43.049Z,3.94
2023-04-07T01:41:12.060Z,3.91
2023-04-07T01:43:41.744Z,3.92
2023-04-07T01:46:11.180Z,3.86
2023-04-07T01:48:39.766Z,3.85
2023-04-07T01:51:11.827Z,3.81
2023-04-07T01:53:40.289Z,3.81
2023-04-07T01:56:08.511Z,3.78
2023-04-07T01:58:36.401Z,3.75
2023-04-07T02:01:04.169Z,3.74
2023-04-07T02:03:47.934Z,3.68
2023-04-07T02:06:20.848Z,3.61
2023-04-07T02:08:51.457Z,3.55
2023-04-07T02:11:21.612Z,3.55
2023-04-07T02:13:52.508Z,3.53
2023-04-07T02:16:22.118Z,3.52
2023-04-07T02:18:51.566Z,3.50
2023-04-07T02:21:21.423Z,3.49
2023-04-07T02:23:49.191Z,3.49
2023-04-07T02:26:17.015Z,3.50
2023-04-07T02:28:44.644Z,3.47
2023-04-07T02:31:13.684Z,3.46
2023-04-07T02:33:41.671Z,3.46
2023-04-07T02:36:11.002Z,3.42
2023-04-07T02:38:38.737Z,3.41
2023-04-07T02:41:06.627Z,3.39
2023-04-07T02:43:34.297Z,3.34
2023-04-07T02:46:02.006Z,3.34
2023-04-07T02:48:30.366Z,3.32
2023-04-07T02:50:58.382Z,3.31
2023-04-07T02:53:27.349Z,3.30
2023-04-07T02:55:54.986Z,3.32
2023-04-07T02:58:23.248Z,3.32
2023-04-07T03:00:51.040Z,3.30
2023-04-07T03:03:18.939Z,3.29
2023-04-07T03:05:46.786Z,3.28
2023-04-07T03:08:14.415Z,3.28
2023-04-07T03:10:43.932Z,3.26
2023-04-07T03:13:12.819Z,3.24
2023-04-07T03:15:40.615Z,3.25
2023-04-07T03:18:08.238Z,3.24
2023-04-07T03:20:35.898Z,3.23
2023-04-07T03:23:03.544Z,3.25
2023-04-07T03:25:31.334Z,3.24
2023-04-07T03:28:00.412Z,3.25
2023-04-07T03:30:28.040Z,3.24
2023-04-07T03:32:55.695Z,3.24
2023-04-07T03:35:23.341Z,3.23
2023-04-07T03:37:51.371Z,3.22
2023-04-07T03:40:19.271Z,3.21
2023-04-07T03:42:47.510Z,3.19
2023-04-07T03:45:17.332Z,3.14
2023-04-07T03:47:44.973Z,3.13
2023-04-07T03:50:12.611Z,3.10
2023-04-07T03:52:40.257Z,3.10
2023-04-07T03:55:09.112Z,3.08
2023-04-07T03:57:36.712Z,3.07
2023-04-07T04:00:04.923Z,3.03
2023-04-07T04:02:34.080Z,2.99
2023-04-07T04:05:01.753Z,2.97
2023-04-07T04:07:29.417Z,2.94
2023-04-07T04:09:57.142Z,2.92
2023-04-07T04:12:24.803Z,2.90
2023-04-07T04:14:52.425Z,2.90
2023-04-07T04:17:20.140Z,2.88
2023-04-07T04:19:49.174Z,2.87
2023-04-07T04:22:17.024Z,2.84
2023-04-07T04:24:44.610Z,2.87
2023-04-07T04:27:12.263Z,2.83
2023-04-07T04:29:39.926Z,2.81
2023-04-07T04:32:07.610Z,2.77
2023-04-07T04:34:35.367Z,2.77
2023-04-07T04:37:04.422Z,2.74
2023-04-07T04:39:32.006Z,2.72
2023-04-07T04:41:59.574Z,2.71
2023-04-07T04:44:27.275Z,2.71
2023-04-07T04:46:54.995Z,2.68
2023-04-07T04:49:22.654Z,2.70
2023-04-07T04:51:50.420Z,2.71
2023-04-07T04:54:21.565Z,2.74
2023-04-07T04:56:49.398Z,2.77
2023-04-07T04:59:17.089Z,2.83
2023-04-07T05:01:44.843Z,2.84
2023-04-07T05:04:13.070Z,2.93
2023-04-07T05:06:40.908Z,3.10
2023-04-07T05:09:08.490Z,3.46
2023-04-07T05:11:37.475Z,4.06
2023-04-07T05:14:05.140Z,4.51
2023-04-07T05:16:32.811Z,5.07
2023-04-07T05:19:00.561Z,5.56
2023-04-07T05:21:28.232Z,6.12
2023-04-07T05:23:56.430Z,6.48
2023-04-07T05:26:23.998Z,6.60
2023-04-07T05:28:52.941Z,6.71
2023-04-07T05:31:20.731Z,6.87
2023-04-07T05:33:48.601Z,7.23
2023-04-07T05:36:17.425Z,7.39
2023-04-07T05:38:45.040Z,7.65
2023-04-07T05:41:13.065Z,7.82
2023-04-07T05:43:40.660Z,8.06
2023-04-07T05:46:09.679Z,8.47
2023-04-07T05:48:37.413Z,8.44
2023-04-07T05:51:05.256Z,8.82
2023-04-07T05:53:32.911Z,8.86
2023-04-07T05:56:00.585Z,9.33
2023-04-07T05:58:28.980Z,9.42
2023-04-07T06:00:57.061Z,9.59
2023-04-07T06:03:26.236Z,9.96
2023-04-07T06:05:53.925Z,9.88
2023-04-07T06:08:21.599Z,9.91
2023-04-07T06:10:49.326Z,10.20
2023-04-07T06:13:17.059Z,10.41
2023-04-07T06:15:44.700Z,10.67
2023-04-07T06:18:12.346Z,11.07
2023-04-07T06:20:41.489Z,11.36
2023-04-07T06:23:09.058Z,11.36
2023-04-07T06:25:36.758Z,11.85
2023-04-07T06:28:04.481Z,11.22
2023-04-07T06:30:32.501Z,11.54
2023-04-07T06:33:00.282Z,11.61
2023-04-07T06:35:28.154Z,11.63
2023-04-07T06:37:57.097Z,11.47
2023-04-07T06:40:24.894Z,11.74
2023-04-07T06:42:54.518Z,12.10
2023-04-07T06:45:22.242Z,12.15
2023-04-07T06:47:50.096Z,12.16
2023-04-07T06:50:20.758Z,12.40
2023-04-07T06:52:48.363Z,12.61
2023-04-07T06:55:17.765Z,12.58
2023-04-07T06:57:45.331Z,12.07
2023-04-07T07:00:13.437Z,11.59
2023-04-07T07:02:41.140Z,11.79
2023-04-07T07:05:09.128Z,11.55
2023-04-07T07:07:37.043Z,11.68
2023-04-07T07:10:05.048Z,11.68
2023-04-07T07:12:34.527Z,11.33
2023-04-07T07:15:02.181Z,11.25
2023-04-07T07:17:29.780Z,11.61
2023-04-07T07:19:57.460Z,11.41
2023-04-07T07:22:25.533Z,11.47
2023-04-07T07:24:53.266Z,11.07
2023-04-07T07:27:21.236Z,10.52
2023-04-07T07:29:50.286Z,10.46
2023-04-07T07:32:18.038Z,10.35
2023-04-07T07:34:45.731Z,10.36
2023-04-07T07:37:13.412Z,10.00
2023-04-07T07:39:41.068Z,10.01
2023-04-07T07:42:08.791Z,9.87
2023-04-07T07:44:36.394Z,9.74
2023-04-07T07:47:05.442Z,9.48
2023-04-07T07:49:33.069Z,9.56
2023-04-07T07:52:01.204Z,9.79
2023-04-07T07:54:28.856Z,10.06
2023-04-07T07:56:57.351Z,10.68
2023-04-07T07:59:25.574Z,10.66
2023-04-07T08:01:54.022Z,10.61
2023-04-07T08:04:24.087Z,10.28
2023-04-07T08:06:52.507Z,10.44
2023-04-07T08:09:20.455Z,10.41
2023-04-07T08:11:49.309Z,10.28
2023-04-07T08:14:17.231Z,10.20
2023-04-07T08:16:45.946Z,10.06
2023-04-07T08:19:14.537Z,9.95
2023-04-07T08:21:43.596Z,9.92
2023-04-07T08:24:11.898Z,9.64
2023-04-07T08:26:39.611Z,9.62
2023-04-07T08:29:07.266Z,9.70
2023-04-07T08:31:34.881Z,9.43
2023-04-07T08:34:02.498Z,9.48
2023-04-07T08:36:30.225Z,9.52
2023-04-07T08:39:01.204Z,9.58
2023-04-07T08:41:34.275Z,9.59
2023-04-07T08:44:02.810Z,9.78
2023-04-07T08:46:31.112Z,9.91
2023-04-07T08:48:59.317Z,9.84
2023-04-07T08:51:29.935Z,9.72
2023-04-07T08:54:06.541Z,9.77
2023-04-07T08:56:35.114Z,9.71
2023-04-07T08:59:03.314Z,9.81
2023-04-07T09:01:32.026Z,9.78
2023-04-07T09:04:00.354Z,9.77
2023-04-07T09:06:28.189Z,9.70
2023-04-07T09:08:55.829Z,9.84
2023-04-07T09:11:25.027Z,9.88
2023-04-07T09:13:52.679Z,9.96
2023-04-07T09:16:20.585Z,9.94
2023-04-07T09:18:48.342Z,9.89
2023-04-07T09:21:16.005Z,10.01
2023-04-07T09:23:44.060Z,9.87
2023-04-07T09:26:23.060Z,9.92
2023-04-07T09:28:56.029Z,9.99
2023-04-07T09:31:26.254Z,10.01
2023-04-07T09:33:54.397Z,9.91
2023-04-07T09:36:22.013Z,9.97
2023-04-07T09:38:49.665Z,10.14
2023-04-07T09:41:18.231Z,10.16
2023-04-07T09:43:47.639Z,9.92
2023-04-07T09:46:18.999Z,9.84
2023-04-07T09:48:48.501Z,10.05
2023-04-07T09:51:18.351Z,10.21
2023-04-07T09:53:48.757Z,10.26
2023-04-07T09:56:18.359Z,10.08
2023-04-07T09:58:47.593Z,10.26
2023-04-07T10:01:17.886Z,10.09
2023-04-07T10:03:47.198Z,10.05
2023-04-07T10:06:16.448Z,10.30
2023-04-07T10:08:44.734Z,10.22
2023-04-07T10:11:12.335Z,10.32
2023-04-07T10:13:41.766Z,10.21
2023-04-07T10:16:09.444Z,10.13
2023-04-07T10:18:40.172Z,10.05
2023-04-07T10:21:09.274Z,10.06
2023-04-07T10:23:52.612Z,9.98
2023-04-07T10:26:26.619Z,9.95
2023-04-07T10:28:59.448Z,9.99
2023-04-07T10:31:27.395Z,10.08
2023-04-07T10:33:57.507Z,10.11
2023-04-07T10:36:26.040Z,9.91
2023-04-07T10:39:25.015Z,9.82
2023-04-07T10:41:53.196Z,9.59
2023-04-07T10:44:50.529Z,9.49
2023-04-07T10:47:18.348Z,9.40
2023-04-07T10:50:18.229Z,9.42
2023-04-07T10:52:47.532Z,9.39
2023-04-07T10:55:45.514Z,9.71
2023-04-07T10:58:23.825Z,9.84
2023-04-07T11:01:22.927Z,9.45
2023-04-07T11:04:00.094Z,9.37
2023-04-07T11:06:29.225Z,9.61
2023-04-07T11:08:57.013Z,9.69
2023-04-07T11:11:39.414Z,9.77
2023-04-07T11:14:07.192Z,9.66
2023-04-07T11:16:40.372Z,9.58
2023-04-07T11:19:08.194Z,9.55
2023-04-07T11:21:37.698Z,9.38
2023-04-07T11:24:05.597Z,9.63
2023-04-07T11:26:39.405Z,9.57
2023-04-07T11:29:08.078Z,9.70
2023-04-07T11:31:35.982Z,9.45
2023-04-07T11:34:05.649Z,9.55
2023-04-07T11:36:34.768Z,9.58
2023-04-07T11:39:03.933Z,9.61
2023-04-07T11:41:33.740Z,9.52
2023-04-07T11:44:06.625Z,9.57
2023-04-07T11:46:34.406Z,9.60
2023-04-07T11:49:13.585Z,9.55
2023-04-07T11:51:42.215Z,9.66
2023-04-07T11:54:11.416Z,9.84
2023-04-07T11:56:47.034Z,9.69
2023-04-07T11:59:22.916Z,9.51
2023-04-07T12:01:51.793Z,9.35
2023-04-07T12:04:20.529Z,9.58
2023-04-07T12:06:50.018Z,9.76
2023-04-07T12:09:30.889Z,9.61
2023-04-07T12:12:00.807Z,9.88
2023-04-07T12:14:28.844Z,9.81
2023-04-07T12:16:58.086Z,9.56
2023-04-07T12:19:27.761Z,9.54
2023-04-07T12:21:55.430Z,9.38
2023-04-07T12:24:23.814Z,9.39
2023-04-07T12:26:52.937Z,9.34
2023-04-07T12:29:20.865Z,9.14
2023-04-07T12:31:50.879Z,9.31
2023-04-07T12:34:18.810Z,9.22
2023-04-07T12:36:46.410Z,9.05
2023-04-07T12:39:14.061Z,9.07
2023-04-07T12:41:41.985Z,9.04
2023-04-07T12:44:11.146Z,8.95
2023-04-07T12:46:38.794Z,8.75
2023-04-07T12:49:06.565Z,9.08
2023-04-07T12:51:34.437Z,9.07
2023-04-07T12:54:02.437Z,9.28
2023-04-07T12:56:30.617Z,9.26
2023-04-07T12:58:58.460Z,9.18
2023-04-07T13:01:27.702Z,9.44
2023-04-07T13:03:56.148Z,9.32
2023-04-07T13:06:24.375Z,9.30
2023-04-07T13:08:51.943Z,9.23
2023-04-07T13:11:19.715Z,9.31
2023-04-07T13:13:47.546Z,9.44
2023-04-07T13:16:15.401Z,9.38
2023-04-07T13:18:44.405Z,9.57
2023-04-07T13:21:41.169Z,9.56
2023-04-07T13:23:59.715Z,9.44
2023-04-07T13:26:28.160Z,9.40
2023-04-07T13:28:56.012Z,9.44
2023-04-07T13:31:23.939Z,9.57
2023-04-07T13:33:52.919Z,9.39
2023-04-07T13:36:23.144Z,9.37
2023-04-07T13:38:51.099Z,9.11
2023-04-07T13:41:18.725Z,9.13
2023-04-07T13:43:46.864Z,9.40
2023-04-07T13:46:27.039Z,9.51
2023-04-07T13:48:57.594Z,9.32
2023-04-07T13:51:25.876Z,9.27
2023-04-07T13:53:53.521Z,9.34
2023-04-07T13:56:22.304Z,9.34
2023-04-07T13:58:50.425Z,9.31
2023-04-07T14:01:18.407Z,9.56
2023-04-07T14:03:46.734Z,9.52
2023-04-07T14:06:16.320Z,9.38
2023-04-07T14:08:43.900Z,9.40
2023-04-07T14:11:11.557Z,9.33
2023-04-07T14:13:39.131Z,9.19
2023-04-07T14:16:07.972Z,9.18
2023-04-07T14:18:35.867Z,9.35
2023-04-07T14:21:03.576Z,9.30
2023-04-07T14:23:37.186Z,9.26
2023-04-07T14:26:05.481Z,9.24
2023-04-07T14:28:33.594Z,9.16
2023-04-07T14:31:01.231Z,9.21
2023-04-07T14:33:29.336Z,9.27
2023-04-07T14:35:57.271Z,9.26
2023-04-07T14:38:25.925Z,9.28
2023-04-07T14:40:55.261Z,9.23
2023-04-07T14:43:22.911Z,9.16
2023-04-07T14:45:50.913Z,9.03
2023-04-07T14:48:18.578Z,9.09
2023-04-07T14:50:47.650Z,8.95
2023-04-07T14:53:15.992Z,9.11
2023-04-07T14:55:43.713Z,9.26
2023-04-07T14:58:12.655Z,9.22
2023-04-07T15:00:40.283Z,9.05
2023-04-07T15:03:08.067Z,9.01
2023-04-07T15:05:36.024Z,8.77
2023-04-07T15:08:03.640Z,8.83
2023-04-07T15:10:33.168Z,8.81
2023-04-07T15:13:00.875Z,8.74
2023-04-07T15:15:29.920Z,8.65
2023-04-07T15:17:57.622Z,8.52
2023-04-07T15:20:25.701Z,8.48
2023-04-07T15:22:53.237Z,8.55
2023-04-07T15:25:22.631Z,8.37
2023-04-07T15:27:50.837Z,8.28
2023-04-07T15:30:18.421Z,8.31
2023-04-07T15:33:00.277Z,8.39
2023-04-07T15:35:28.544Z,8.36
2023-04-07T15:37:56.180Z,8.27
2023-04-07T15:40:24.262Z,8.23
2023-04-07T15:42:51.852Z,8.38
2023-04-07T15:45:19.456Z,8.24
2023-04-07T15:47:47.092Z,7.99
2023-04-07T15:50:16.753Z,7.95
2023-04-07T15:52:44.339Z,7.85
2023-04-07T15:55:12.111Z,7.87
2023-04-07T15:57:39.763Z,7.86
2023-04-07T16:00:09.114Z,7.72
2023-04-07T16:02:38.305Z,7.69
2023-04-07T16:05:08.036Z,7.70
2023-04-07T16:07:37.353Z,7.85
2023-04-07T16:10:08.103Z,7.84
2023-04-07T16:12:36.849Z,7.71
2023-04-07T16:15:04.974Z,7.66
2023-04-07T16:17:32.668Z,7.66
2023-04-07T16:20:00.536Z,7.58
2023-04-07T16:22:28.123Z,7.61
2023-04-07T16:24:57.201Z,7.56
2023-04-07T16:27:24.820Z,7.54
2023-04-07T16:29:52.368Z,7.40
2023-04-07T16:32:19.940Z,7.46
2023-04-07T16:34:47.606Z,7.37
2023-04-07T16:37:15.193Z,7.20
2023-04-07T16:39:42.784Z,7.01
2023-04-07T16:42:11.784Z,7.09
2023-04-07T16:44:39.351Z,7.08
2023-04-07T16:47:07.047Z,7.00
2023-04-07T16:49:34.604Z,7.04
2023-04-07T16:52:02.156Z,6.99
2023-04-07T16:54:29.774Z,6.91
2023-04-07T16:56:57.705Z,6.98
2023-04-07T16:59:26.631Z,6.93
2023-04-07T17:01:54.353Z,7.06
2023-04-07T17:04:22.173Z,7.06
2023-04-07T17:06:49.863Z,7.04
2023-04-07T17:09:18.483Z,6.98
2023-04-07T17:11:46.098Z,6.97
2023-04-07T17:14:13.686Z,6.92
2023-04-07T17:16:42.788Z,6.85
2023-04-07T17:19:11.317Z,6.77
2023-04-07T17:21:38.960Z,6.70
2023-04-07T17:24:07.803Z,6.68
2023-04-07T17:26:35.752Z,6.70
2023-04-07T17:29:03.365Z,6.68
2023-04-07T17:31:31.880Z,6.58
2023-04-07T17:34:01.367Z,6.46
2023-04-07T17:36:31.775Z,6.39
2023-04-07T17:38:59.588Z,6.37
2023-04-07T17:41:28.347Z,6.33
2023-04-07T17:43:56.194Z,6.22
2023-04-07T17:46:24.004Z,6.28
2023-04-07T17:48:51.776Z,6.28
2023-04-07T17:51:20.828Z,6.23
2023-04-07T17:53:49.282Z,6.15
2023-04-07T17:56:17.116Z,6.13
2023-04-07T17:58:46.643Z,6.12
2023-04-07T18:01:14.924Z,6.08
2023-04-07T18:03:42.838Z,6.03
2023-04-07T18:06:10.682Z,5.94
2023-04-07T18:08:39.679Z,5.88
2023-04-07T18:11:07.402Z,5.85
2023-04-07T18:13:35.008Z,5.84
2023-04-07T18:16:02.765Z,5.83
2023-04-07T18:18:30.827Z,5.78
2023-04-07T18:20:58.862Z,5.78
2023-04-07T18:23:26.706Z,5.79
2023-04-07T18:25:55.677Z,5.76
2023-04-07T18:28:23.529Z,5.79
2023-04-07T18:31:00.760Z,5.83
2023-04-07T18:33:32.776Z,5.88
2023-04-07T18:36:01.746Z,5.80
2023-04-07T18:38:29.410Z,5.78
2023-04-07T18:40:58.595Z,5.76
2023-04-07T18:43:27.861Z,5.78
2023-04-07T18:45:55.726Z,5.75
2023-04-07T18:48:23.325Z,5.74
2023-04-07T18:50:52.560Z,5.73
2023-04-07T18:53:20.411Z,5.75
2023-04-07T18:55:48.369Z,5.72
2023-04-07T18:58:17.517Z,5.69
2023-04-07T19:00:45.394Z,5.71
2023-04-07T19:03:13.182Z,5.74
2023-04-07T19:05:41.815Z,5.78
2023-04-07T19:08:12.076Z,5.82
2023-04-07T19:10:39.682Z,5.77
2023-04-07T19:13:07.473Z,5.79
2023-04-07T19:15:38.389Z,5.81
2023-04-07T19:18:07.786Z,5.78
2023-04-07T19:20:35.509Z,5.78
2023-04-07T19:23:03.317Z,5.75
2023-04-07T19:25:31.717Z,5.77
2023-04-07T19:27:59.600Z,5.76
2023-04-07T19:30:27.700Z,5.81
2023-04-07T19:32:56.791Z,5.80
2023-04-07T19:35:24.599Z,5.76
2023-04-07T19:37:52.420Z,5.70
2023-04-07T19:40:20.748Z,5.76
2023-04-07T19:42:49.559Z,5.77
2023-04-07T19:45:17.167Z,5.73
2023-04-07T19:47:45.044Z,5.75
2023-04-07T19:50:14.442Z,5.73
2023-04-07T19:52:43.483Z,5.70
2023-04-07T19:55:11.138Z,5.69
2023-04-07T19:57:40.215Z,5.66
2023-04-07T20:00:09.823Z,5.65
2023-04-07T20:02:38.172Z,5.70
2023-04-07T20:05:06.762Z,5.73
2023-04-07T20:07:35.704Z,5.79
2023-04-07T20:10:03.862Z,5.77
2023-04-07T20:12:31.500Z,5.76
2023-04-07T20:14:59.177Z,5.76
2023-04-07T20:17:26.865Z,5.77
2023-04-07T20:19:55.580Z,5.74
2023-04-07T20:22:23.646Z,5.71
2023-04-07T20:24:52.658Z,5.70
2023-04-07T20:27:20.244Z,5.63
2023-04-07T20:29:47.931Z,5.61
2023-04-07T20:32:15.538Z,5.67
2023-04-07T20:34:45.857Z,5.66
2023-04-07T20:37:13.489Z,5.63
2023-04-07T20:39:41.126Z,5.64
2023-04-07T20:42:10.431Z,5.64
2023-04-07T20:44:38.257Z,5.66
2023-04-07T20:47:08.784Z,5.64
2023-04-07T20:49:37.062Z,5.62
2023-04-07T20:52:04.691Z,5.62
2023-04-07T20:54:32.388Z,5.61
2023-04-07T20:57:00.668Z,5.61
2023-04-07T20:59:30.355Z,5.55
2023-04-07T21:01:58.200Z,5.52
2023-04-07T21:04:26.126Z,5.52
2023-04-07T21:06:53.777Z,5.48
2023-04-07T21:09:21.456Z,5.46
2023-04-07T21:11:49.029Z,5.45
2023-04-07T21:14:16.836Z,5.49
2023-04-07T21:16:46.205Z,5.51
2023-04-07T21:19:13.804Z,5.52
2023-04-07T21:21:41.375Z,5.52
2023-04-07T21:24:08.986Z,5.45
2023-04-07T21:26:36.586Z,5.48
2023-04-07T21:29:04.188Z,5.54
2023-04-07T21:31:32.227Z,5.56
2023-04-07T21:34:01.353Z,5.58
2023-04-07T21:36:29.114Z,5.51
2023-04-07T21:38:56.976Z,5.56
2023-04-07T21:41:24.950Z,5.60
2023-04-07T21:43:52.691Z,5.62
2023-04-07T21:46:20.711Z,5.56
2023-04-07T21:48:49.072Z,5.64
2023-04-07T21:51:18.348Z,5.65
2023-04-07T21:53:45.960Z,5.68
2023-04-07T21:56:13.779Z,5.71
2023-04-07T21:58:42.332Z,5.67
2023-04-07T22:01:10.218Z,5.67
2023-04-07T22:03:38.060Z,5.70
2023-04-07T22:06:07.285Z,5.68
2023-04-07T22:08:36.269Z,5.71
2023-04-07T22:11:03.917Z,5.75
2023-04-07T22:13:31.818Z,5.78
2023-04-07T22:16:01.144Z,5.76
2023-04-07T22:18:28.899Z,5.81
2023-04-07T22:20:56.486Z,5.87
2023-04-07T22:23:24.054Z,5.85
2023-04-07T22:25:53.007Z,5.85
2023-04-07T22:28:20.677Z,5.86
2023-04-07T22:30:48.587Z,5.84
2023-04-07T22:33:16.264Z,5.86
2023-04-07T22:35:43.947Z,5.92
2023-04-07T22:38:13.427Z,5.90
2023-04-07T22:40:41.875Z,5.89
2023-04-07T22:43:10.980Z,5.91
2023-04-07T22:45:38.624Z,5.97
2023-04-07T22:48:06.978Z,6.01
2023-04-07T22:50:34.702Z,6.03
2023-04-07T22:53:02.313Z,6.07
2023-04-07T22:55:30.156Z,6.05
2023-04-07T22:57:57.875Z,6.07
2023-04-07T23:00:26.969Z,6.00
2023-04-07T23:02:55.185Z,6.01
2023-04-07T23:05:23.022Z,6.04
2023-04-07T23:07:51.917Z,6.06
2023-04-07T23:10:19.484Z,6.09
2023-04-07T23:12:47.580Z,6.10
2023-04-07T23:15:15.194Z,6.11
2023-04-07T23:17:44.210Z,6.17
2023-04-07T23:20:12.290Z,6.20
2023-04-07T23:22:39.908Z,6.17
2023-04-07T23:25:08.624Z,6.14
2023-04-07T23:27:36.409Z,6.16
2023-04-07T23:30:04.223Z,6.16
2023-04-07T23:32:31.797Z,6.12
2023-04-07T23:35:01.560Z,6.12
2023-04-07T23:37:29.148Z,6.19
2023-04-07T23:39:56.797Z,6.19
2023-04-07T23:42:24.841Z,6.21
2023-04-07T23:44:52.538Z,6.18
2023-04-07T23:47:20.504Z,6.17
2023-04-07T23:49:48.160Z,6.12
2023-04-07T23:52:17.094Z,6.14
2023-04-07T23:54:45.133Z,6.19
2023-04-07T23:57:12.756Z,6.20
2023-04-07T23:59:40.402Z,6.24
